createdAt,value
2018-09-05T00:02:11.470Z,11.33
2018-09-05T00:04:40.039Z,9.90
2018-09-05T00:07:08.601Z,9.13
2018-09-05T00:09:37.139Z,9.80
2018-09-05T00:12:06.022Z,9.80
2018-09-05T00:14:34.683Z,9.57
2018-09-05T00:17:03.242Z,9.17
2018-09-05T00:19:31.749Z,10.60
2018-09-05T00:22:00.271Z,9.63
2018-09-05T00:24:28.771Z,9.10
2018-09-05T00:26:57.317Z,9.83
2018-09-05T00:29:26.201Z,9.20
2018-09-05T00:31:54.752Z,9.40
2018-09-05T00:34:23.238Z,10.50
2018-09-05T00:36:51.785Z,9.97
2018-09-05T00:39:20.325Z,9.90
2018-09-05T00:41:48.854Z,10.33
2018-09-05T00:44:17.362Z,10.40
2018-09-05T00:46:45.870Z,9.33
2018-09-05T00:49:14.451Z,9.70
2018-09-05T00:51:42.953Z,9.50
2018-09-05T00:54:11.517Z,10.33
2018-09-05T00:56:40.102Z,10.77
2018-09-05T00:59:08.633Z,11.20
2018-09-05T01:01:37.158Z,8.10
2018-09-05T01:04:05.886Z,8.60
2018-09-05T01:06:34.596Z,10.30
2018-09-05T01:09:03.181Z,9.73
2018-09-05T01:11:31.741Z,9.50
2018-09-05T01:14:00.270Z,8.73
2018-09-05T01:16:28.776Z,9.70
2018-09-05T01:18:57.371Z,9.87
2018-09-05T01:21:25.942Z,9.20
2018-09-05T01:23:54.527Z,9.17
2018-09-05T01:26:23.134Z,9.00
2018-09-05T01:28:51.628Z,8.23
2018-09-05T01:31:20.213Z,8.27
2018-09-05T01:33:48.732Z,8.50
2018-09-05T01:36:18.590Z,8.37
2018-09-05T01:38:47.109Z,7.93
2018-09-05T01:41:15.861Z,8.30
2018-09-05T01:43:44.826Z,7.90
2018-09-05T01:46:13.379Z,8.70
2018-09-05T01:48:41.926Z,8.07
2018-09-05T01:51:10.489Z,8.50
2018-09-05T01:53:39.073Z,8.37
2018-09-05T01:56:07.570Z,8.70
2018-09-05T01:58:36.141Z,7.03
2018-09-05T02:01:04.675Z,8.23
2018-09-05T02:03:33.216Z,8.63
2018-09-05T02:06:01.720Z,8.30
2018-09-05T02:08:30.299Z,8.10
2018-09-05T02:10:58.782Z,7.90
2018-09-05T02:13:27.292Z,7.30
2018-09-05T02:15:55.818Z,6.90
2018-09-05T02:18:24.711Z,8.00
2018-09-05T02:20:53.281Z,7.60
2018-09-05T02:23:21.845Z,7.33
2018-09-05T02:25:50.346Z,7.33
2018-09-05T02:28:18.869Z,7.00
2018-09-05T02:30:47.398Z,6.20
2018-09-05T02:33:15.913Z,6.50
2018-09-05T02:35:44.408Z,6.30
2018-09-05T02:38:13.015Z,6.13
2018-09-05T02:40:41.493Z,6.03
2018-09-05T02:43:09.990Z,6.73
2018-09-05T02:45:38.521Z,6.43
2018-09-05T02:48:07.064Z,6.10
2018-09-05T02:50:35.589Z,6.50
2018-09-05T02:53:04.116Z,6.30
2018-09-05T02:55:37.978Z,5.97
2018-09-05T02:58:06.514Z,5.53
2018-09-05T03:00:34.996Z,5.60
2018-09-05T03:03:03.497Z,4.93
2018-09-05T03:05:31.981Z,5.40
2018-09-05T03:08:00.475Z,6.33
2018-09-05T03:10:28.954Z,5.07
2018-09-05T03:12:57.477Z,6.17
2018-09-05T03:15:26.010Z,5.43
2018-09-05T03:17:54.506Z,6.10
2018-09-05T03:20:23.022Z,5.00
2018-09-05T03:22:51.550Z,5.80
2018-09-05T03:25:20.071Z,5.57
2018-09-05T03:27:48.651Z,6.20
2018-09-05T03:30:17.151Z,6.10
2018-09-05T03:32:45.768Z,5.80
2018-09-05T03:35:14.214Z,5.53
2018-09-05T03:37:42.715Z,6.00
2018-09-05T03:40:11.181Z,5.40
2018-09-05T03:42:39.687Z,5.77
2018-09-05T03:45:08.187Z,5.53
2018-09-05T03:47:36.706Z,5.43
2018-09-05T03:50:06.183Z,4.90
2018-09-05T03:52:34.684Z,5.87
2018-09-05T03:55:03.179Z,6.00
2018-09-05T03:57:31.649Z,5.03
2018-09-05T04:00:00.147Z,5.73
2018-09-05T04:02:28.624Z,5.50
2018-09-05T04:04:58.154Z,5.40
2018-09-05T04:07:26.939Z,5.90
2018-09-05T04:09:55.430Z,5.47
2018-09-05T04:12:23.987Z,5.60
2018-09-05T04:14:52.490Z,5.77
2018-09-05T04:17:21.349Z,5.00
2018-09-05T04:19:50.057Z,6.03
2018-09-05T04:22:18.517Z,5.80
2018-09-05T04:24:47.043Z,5.30
2018-09-05T04:27:15.681Z,5.60
2018-09-05T04:29:44.195Z,5.43
2018-09-05T04:32:12.712Z,5.20
2018-09-05T04:34:41.197Z,5.90
2018-09-05T04:37:09.686Z,5.43
2018-09-05T04:39:38.191Z,6.10
2018-09-05T04:42:06.741Z,5.57
2018-09-05T04:44:35.227Z,5.30
2018-09-05T04:47:03.741Z,6.03
2018-09-05T04:49:32.245Z,4.87
2018-09-05T04:52:00.714Z,5.63
2018-09-05T04:54:29.221Z,5.30
2018-09-05T04:56:57.701Z,5.00
2018-09-05T04:59:26.268Z,4.73
2018-09-05T05:01:54.851Z,4.30
2018-09-05T05:04:23.550Z,5.97
2018-09-05T05:06:52.053Z,5.00
2018-09-05T05:09:20.546Z,4.50
2018-09-05T05:11:49.037Z,4.90
2018-09-05T05:14:17.534Z,4.57
2018-09-05T05:16:46.002Z,5.40
2018-09-05T05:19:14.510Z,5.37
2018-09-05T05:21:43.096Z,4.83
2018-09-05T05:24:11.676Z,5.83
2018-09-05T05:26:40.166Z,4.87
2018-09-05T05:29:08.711Z,5.07
2018-09-05T05:31:37.249Z,4.47
2018-09-05T05:34:05.831Z,5.90
2018-09-05T05:36:34.416Z,5.73
2018-09-05T05:39:03.084Z,5.30
2018-09-05T05:41:31.584Z,5.70
2018-09-05T05:44:00.122Z,6.20
2018-09-05T05:46:28.702Z,5.60
2018-09-05T05:48:57.161Z,5.63
2018-09-05T05:51:25.715Z,5.70
2018-09-05T05:53:54.211Z,5.93
2018-09-05T05:56:22.717Z,7.13
2018-09-05T05:58:51.184Z,6.90
2018-09-05T06:01:19.831Z,6.20
2018-09-05T06:03:48.243Z,7.10
2018-09-05T06:06:16.913Z,7.47
2018-09-05T06:08:45.241Z,6.60
2018-09-05T06:11:13.757Z,6.20
2018-09-05T06:13:42.236Z,5.70
2018-09-05T06:16:10.854Z,6.97
2018-09-05T06:18:40.229Z,6.13
2018-09-05T06:21:08.824Z,7.23
2018-09-05T06:23:37.397Z,6.20
2018-09-05T06:26:06.317Z,6.40
2018-09-05T06:28:35.193Z,6.80
2018-09-05T06:31:04.142Z,6.60
2018-09-05T06:33:32.575Z,6.73
2018-09-05T06:36:01.108Z,7.03
2018-09-05T06:38:29.648Z,6.70
2018-09-05T06:40:58.198Z,7.73
2018-09-05T06:43:26.784Z,7.10
2018-09-05T06:45:55.329Z,7.10
2018-09-05T06:48:23.847Z,7.43
2018-09-05T06:50:56.586Z,7.87
2018-09-05T06:53:25.097Z,7.93
2018-09-05T06:55:53.642Z,7.30
2018-09-05T06:58:22.284Z,7.90
2018-09-05T07:00:50.831Z,8.07
2018-09-05T07:03:19.462Z,8.33
2018-09-05T07:05:48.334Z,7.90
2018-09-05T07:08:16.829Z,9.33
2018-09-05T07:10:45.414Z,9.57
2018-09-05T07:13:13.925Z,9.33
2018-09-05T07:15:42.491Z,10.73
2018-09-05T07:18:11.010Z,11.33
2018-09-05T07:20:39.534Z,10.57
2018-09-05T07:23:08.105Z,10.10
2018-09-05T07:25:36.632Z,10.67
2018-09-05T07:28:05.395Z,9.70
2018-09-05T07:30:34.088Z,10.87
2018-09-05T07:33:02.514Z,9.77
2018-09-05T07:35:31.045Z,10.23
2018-09-05T07:37:59.560Z,13.00
2018-09-05T07:40:28.063Z,11.20
2018-09-05T07:42:56.630Z,12.87
2018-09-05T07:45:25.198Z,12.57
2018-09-05T07:47:53.727Z,11.80
2018-09-05T07:50:22.259Z,11.20
2018-09-05T07:52:50.778Z,10.73
2018-09-05T07:55:19.426Z,11.50
2018-09-05T07:57:47.931Z,12.03
2018-09-05T08:00:16.409Z,10.30
2018-09-05T08:02:44.926Z,9.80
2018-09-05T08:05:13.424Z,10.43
2018-09-05T08:07:41.963Z,10.60
2018-09-05T08:10:10.457Z,9.87
2018-09-05T08:12:38.958Z,9.17
2018-09-05T08:15:07.485Z,10.47
2018-09-05T08:17:35.982Z,8.93
2018-09-05T08:20:04.663Z,9.93
2018-09-05T08:22:33.195Z,8.57
2018-09-05T08:25:01.682Z,9.90
2018-09-05T08:27:30.203Z,8.63
2018-09-05T08:29:58.766Z,10.43
2018-09-05T08:32:27.349Z,10.13
2018-09-05T08:34:55.952Z,9.00
2018-09-05T08:37:24.683Z,8.97
2018-09-05T08:39:52.998Z,8.57
2018-09-05T08:42:21.675Z,8.90
2018-09-05T08:44:50.349Z,8.53
2018-09-05T08:47:18.738Z,8.20
2018-09-05T08:49:47.245Z,8.60
2018-09-05T08:52:15.785Z,8.10
2018-09-05T08:54:44.321Z,7.70
2018-09-05T08:57:12.853Z,9.23
2018-09-05T08:59:41.360Z,10.20
2018-09-05T09:02:09.882Z,10.90
2018-09-05T09:04:38.407Z,10.17
2018-09-05T09:07:06.957Z,10.30
2018-09-05T09:09:35.518Z,9.30
2018-09-05T09:12:04.041Z,9.70
2018-09-05T09:14:32.584Z,13.07
2018-09-05T09:17:01.127Z,12.30
2018-09-05T09:19:29.763Z,12.10
2018-09-05T09:21:58.530Z,11.93
2018-09-05T09:24:27.104Z,12.63
2018-09-05T09:26:55.634Z,12.23
2018-09-05T09:29:24.147Z,11.83
2018-09-05T09:31:52.687Z,12.17
2018-09-05T09:34:21.232Z,11.60
2018-09-05T09:36:49.746Z,13.83
2018-09-05T09:39:18.276Z,14.17
2018-09-05T09:41:46.793Z,13.90
2018-09-05T09:44:15.390Z,13.23
2018-09-05T09:46:44.017Z,14.13
2018-09-05T09:49:12.485Z,13.13
2018-09-05T09:51:41.009Z,13.00
2018-09-05T09:54:09.791Z,15.00
2018-09-05T09:56:38.318Z,13.57
2018-09-05T09:59:06.881Z,13.00
2018-09-05T10:01:40.802Z,13.10
2018-09-05T10:04:14.645Z,12.80
2018-09-05T10:06:48.447Z,13.70
2018-09-05T10:09:22.627Z,13.47
2018-09-05T10:11:56.403Z,14.70
2018-09-05T10:14:30.235Z,14.83
2018-09-05T10:17:04.087Z,13.73
2018-09-05T10:19:32.631Z,13.47
2018-09-05T10:22:01.143Z,14.60
2018-09-05T10:24:29.710Z,15.03
2018-09-05T10:26:58.255Z,13.83
2018-09-05T10:29:26.781Z,13.87
2018-09-05T10:31:55.301Z,13.63
2018-09-05T10:34:23.937Z,15.23
2018-09-05T10:36:52.444Z,14.17
2018-09-05T10:39:21.047Z,14.87
2018-09-05T10:41:49.531Z,13.63
2018-09-05T10:44:18.114Z,13.43
2018-09-05T10:46:46.574Z,12.50
2018-09-05T10:49:15.079Z,13.20
2018-09-05T10:51:49.011Z,12.73
2018-09-05T10:54:17.481Z,13.60
2018-09-05T10:56:45.979Z,13.40
2018-09-05T10:59:14.494Z,13.07
2018-09-05T11:01:43.065Z,14.97
2018-09-05T11:04:11.646Z,15.27
2018-09-05T11:06:40.333Z,14.20
2018-09-05T11:09:10.585Z,13.60
2018-09-05T11:11:39.684Z,12.73
2018-09-05T11:14:09.126Z,13.03
2018-09-05T11:16:37.855Z,14.33
2018-09-05T11:19:06.793Z,15.50
2018-09-05T11:21:35.362Z,15.07
2018-09-05T11:24:03.885Z,13.23
2018-09-05T11:26:32.399Z,13.27
2018-09-05T11:29:01.002Z,14.70
2018-09-05T11:31:29.574Z,14.53
2018-09-05T11:33:58.089Z,13.90
2018-09-05T11:36:26.617Z,13.70
2018-09-05T11:38:55.147Z,14.80
2018-09-05T11:41:23.667Z,13.60
2018-09-05T11:43:52.342Z,14.47
2018-09-05T11:46:21.090Z,14.70
2018-09-05T11:48:49.601Z,15.30
2018-09-05T11:51:18.118Z,15.40
2018-09-05T11:53:46.620Z,15.17
2018-09-05T11:56:15.169Z,15.87
2018-09-05T11:58:43.689Z,15.43
2018-09-05T12:01:12.224Z,16.00
2018-09-05T12:03:40.749Z,15.00
2018-09-05T12:06:09.305Z,13.83
2018-09-05T12:08:37.808Z,13.50
2018-09-05T12:11:06.375Z,13.80
2018-09-05T12:13:34.878Z,16.33
2018-09-05T12:16:03.437Z,14.70
2018-09-05T12:18:31.948Z,15.17
2018-09-05T12:21:00.498Z,16.27
2018-09-05T12:23:29.015Z,15.07
2018-09-05T12:25:57.612Z,13.70
2018-09-05T12:28:26.130Z,13.80
2018-09-05T12:30:54.672Z,15.40
2018-09-05T12:33:23.161Z,13.80
2018-09-05T12:35:51.673Z,12.60
2018-09-05T12:38:20.172Z,12.93
2018-09-05T12:40:48.690Z,15.30
2018-09-05T12:43:17.172Z,14.37
2018-09-05T12:45:45.727Z,12.10
2018-09-05T12:48:14.215Z,13.57
2018-09-05T12:50:42.728Z,12.80
2018-09-05T12:53:11.226Z,13.37
2018-09-05T12:55:39.756Z,13.47
2018-09-05T12:58:08.290Z,14.17
2018-09-05T13:00:36.859Z,12.80
2018-09-05T13:03:05.634Z,15.80
2018-09-05T13:05:34.181Z,14.67
2018-09-05T13:08:02.706Z,14.83
2018-09-05T13:10:31.521Z,14.00
2018-09-05T13:13:00.023Z,13.10
2018-09-05T13:15:28.522Z,13.33
2018-09-05T13:17:57.037Z,12.50
2018-09-05T13:20:25.529Z,14.17
2018-09-05T13:22:54.107Z,14.30
2018-09-05T13:25:22.554Z,13.27
2018-09-05T13:27:51.077Z,15.00
2018-09-05T13:30:19.609Z,15.10
2018-09-05T13:32:48.146Z,14.90
2018-09-05T13:35:16.712Z,15.07
2018-09-05T13:37:45.237Z,14.40
2018-09-05T13:40:13.775Z,15.33
2018-09-05T13:42:42.322Z,15.87
2018-09-05T13:45:10.917Z,15.30
2018-09-05T13:47:39.433Z,15.97
2018-09-05T13:50:07.981Z,14.30
2018-09-05T13:52:36.523Z,16.13
2018-09-05T13:55:05.087Z,16.40
2018-09-05T13:57:33.652Z,17.27
2018-09-05T14:00:02.250Z,16.70
2018-09-05T14:02:30.796Z,15.33
2018-09-05T14:04:59.329Z,15.80
2018-09-05T14:07:27.883Z,17.03
2018-09-05T14:09:56.488Z,16.43
2018-09-05T14:12:25.686Z,16.33
2018-09-05T14:14:54.222Z,16.50
2018-09-05T14:17:22.795Z,17.77
2018-09-05T14:19:51.407Z,16.23
2018-09-05T14:22:19.982Z,16.90
2018-09-05T14:24:48.489Z,16.23
2018-09-05T14:27:17.060Z,16.33
2018-09-05T14:29:45.589Z,15.30
2018-09-05T14:32:14.174Z,16.80
2018-09-05T14:34:42.720Z,17.33
2018-09-05T14:37:11.271Z,18.30
2018-09-05T14:39:39.798Z,17.17
2018-09-05T14:42:08.561Z,18.73
2018-09-05T14:44:37.086Z,19.37
2018-09-05T14:47:05.623Z,16.87
2018-09-05T14:49:34.121Z,16.60
2018-09-05T14:52:02.643Z,15.87
2018-09-05T14:54:31.180Z,17.13
2018-09-05T14:56:59.746Z,16.60
2018-09-05T14:59:28.293Z,18.83
2018-09-05T15:01:56.803Z,19.00
2018-09-05T15:04:25.349Z,18.57
2018-09-05T15:06:54.241Z,19.03
2018-09-05T15:09:22.839Z,19.73
2018-09-05T15:11:51.640Z,19.83
2018-09-05T15:14:20.159Z,20.40
2018-09-05T15:16:48.698Z,21.13
2018-09-05T15:19:17.305Z,21.40
2018-09-05T15:21:45.958Z,20.50
2018-09-05T15:24:14.575Z,21.10
2018-09-05T15:26:43.178Z,20.10
2018-09-05T15:29:12.109Z,20.33
2018-09-05T15:31:40.695Z,20.80
2018-09-05T15:34:09.262Z,19.67
2018-09-05T15:36:37.789Z,20.17
2018-09-05T15:39:08.865Z,19.50
2018-09-05T15:41:37.614Z,20.33
2018-09-05T15:44:06.260Z,18.90
2018-09-05T15:46:34.848Z,20.23
2018-09-05T15:49:03.434Z,19.90
2018-09-05T15:51:32.010Z,21.30
2018-09-05T15:54:00.729Z,20.30
2018-09-05T15:56:29.339Z,18.70
2018-09-05T15:58:58.182Z,20.87
2018-09-05T16:01:26.871Z,19.63
2018-09-05T16:03:55.532Z,20.07
2018-09-05T16:06:24.446Z,20.00
2018-09-05T16:08:53.018Z,20.10
2018-09-05T16:11:21.628Z,20.60
2018-09-05T16:13:50.742Z,20.80
2018-09-05T16:16:19.295Z,20.43
2018-09-05T16:18:47.896Z,19.30
2018-09-05T16:21:16.402Z,20.87
2018-09-05T16:23:45.008Z,20.50
2018-09-05T16:26:13.555Z,20.43
2018-09-05T16:28:42.205Z,21.50
2018-09-05T16:31:10.786Z,20.50
2018-09-05T16:33:39.329Z,21.07
2018-09-05T16:36:08.099Z,20.93
2018-09-05T16:38:36.688Z,21.57
2018-09-05T16:41:05.358Z,21.90
2018-09-05T16:43:33.977Z,20.20
2018-09-05T16:46:02.468Z,20.30
2018-09-05T16:48:31.158Z,21.07
2018-09-05T16:50:59.718Z,20.20
2018-09-05T16:53:28.245Z,22.47
2018-09-05T16:55:56.968Z,20.50
2018-09-05T16:58:25.673Z,22.10
2018-09-05T17:00:54.274Z,20.80
2018-09-05T17:03:23.018Z,22.23
2018-09-05T17:05:51.559Z,20.87
2018-09-05T17:08:20.135Z,21.77
2018-09-05T17:10:48.891Z,21.93
2018-09-05T17:13:17.386Z,21.33
2018-09-05T17:15:46.285Z,20.30
2018-09-05T17:18:14.788Z,21.10
2018-09-05T17:20:43.963Z,22.53
2018-09-05T17:23:12.816Z,20.90
2018-09-05T17:25:41.367Z,21.50
2018-09-05T17:28:09.998Z,20.83
2018-09-05T17:30:38.545Z,22.10
2018-09-05T17:33:07.067Z,21.60
2018-09-05T17:35:35.619Z,21.67
2018-09-05T17:38:04.155Z,21.93
2018-09-05T17:40:32.713Z,20.90
2018-09-05T17:43:01.217Z,22.47
2018-09-05T17:45:29.736Z,22.17
2018-09-05T17:47:58.235Z,20.00
2018-09-05T17:50:26.757Z,21.10
2018-09-05T17:52:55.618Z,21.93
2018-09-05T17:55:24.166Z,20.60
2018-09-05T17:57:52.679Z,20.03
2018-09-05T18:00:21.214Z,21.50
2018-09-05T18:02:49.721Z,23.43
2018-09-05T18:05:18.250Z,21.80
2018-09-05T18:07:46.819Z,20.93
2018-09-05T18:10:15.389Z,20.30
2018-09-05T18:12:44.728Z,21.30
2018-09-05T18:15:13.274Z,21.20
2018-09-05T18:17:41.780Z,22.23
2018-09-05T18:20:10.341Z,20.70
2018-09-05T18:22:38.914Z,21.13
2018-09-05T18:25:07.474Z,21.30
2018-09-05T18:27:35.977Z,21.50
2018-09-05T18:30:04.762Z,21.57
2018-09-05T18:32:33.265Z,22.30
2018-09-05T18:35:01.790Z,21.20
2018-09-05T18:37:30.307Z,20.80
2018-09-05T18:39:58.842Z,21.23
2018-09-05T18:42:27.350Z,20.97
2018-09-05T18:44:55.880Z,21.70
2018-09-05T18:47:24.453Z,20.10
2018-09-05T18:49:52.986Z,21.73
2018-09-05T18:52:21.574Z,21.13
2018-09-05T18:54:50.078Z,21.03
2018-09-05T18:57:18.639Z,21.77
2018-09-05T18:59:47.217Z,20.70
2018-09-05T19:02:15.792Z,20.97
2018-09-05T19:04:44.301Z,21.87
2018-09-05T19:07:12.852Z,20.33
2018-09-05T19:09:41.360Z,22.27
2018-09-05T19:12:09.899Z,22.40
2018-09-05T19:14:38.385Z,20.77
2018-09-05T19:17:06.925Z,22.17
2018-09-05T19:19:35.428Z,21.30
2018-09-05T19:22:03.967Z,20.10
2018-09-05T19:24:32.548Z,20.43
2018-09-05T19:27:01.074Z,23.87
2018-09-05T19:29:29.578Z,23.50
2018-09-05T19:31:58.106Z,21.10
2018-09-05T19:34:26.633Z,24.27
2018-09-05T19:36:55.431Z,21.07
2018-09-05T19:39:23.946Z,20.77
2018-09-05T19:41:52.530Z,19.97
2018-09-05T19:44:21.116Z,20.77
2018-09-05T19:46:49.699Z,21.20
2018-09-05T19:49:18.267Z,22.10
2018-09-05T19:51:47.403Z,25.23
2018-09-05T19:54:16.066Z,23.47
2018-09-05T19:56:44.627Z,23.20
2018-09-05T19:59:13.222Z,24.90
2018-09-05T20:01:41.808Z,26.30
2018-09-05T20:04:10.295Z,24.60
2018-09-05T20:06:38.810Z,21.90
2018-09-05T20:09:08.418Z,26.57
2018-09-05T20:11:37.246Z,25.90
2018-09-05T20:14:06.221Z,25.23
2018-09-05T20:16:34.729Z,25.77
2018-09-05T20:19:03.228Z,28.13
2018-09-05T20:21:31.734Z,27.47
2018-09-05T20:24:00.601Z,26.83
2018-09-05T20:26:29.547Z,27.13
2018-09-05T20:28:58.116Z,27.77
2018-09-05T20:31:26.662Z,26.67
2018-09-05T20:33:55.226Z,27.77
2018-09-05T20:36:23.762Z,28.90
2018-09-05T20:38:52.555Z,29.47
2018-09-05T20:41:21.289Z,29.27
2018-09-05T20:43:49.812Z,27.87
2018-09-05T20:46:18.398Z,25.53
2018-09-05T20:48:46.952Z,26.10
2018-09-05T20:51:15.536Z,25.90
2018-09-05T20:53:44.253Z,27.53
2018-09-05T20:56:12.750Z,27.73
2018-09-05T20:58:41.366Z,26.13
2018-09-05T21:01:09.918Z,24.30
2018-09-05T21:03:38.462Z,24.47
2018-09-05T21:06:07.630Z,27.83
2018-09-05T21:08:36.254Z,23.00
2018-09-05T21:11:04.737Z,27.10
2018-09-05T21:13:33.257Z,27.73
2018-09-05T21:16:01.775Z,24.90
2018-09-05T21:18:30.398Z,27.23
2018-09-05T21:20:59.966Z,25.20
2018-09-05T21:23:30.327Z,27.27
2018-09-05T21:25:58.833Z,25.17
2018-09-05T21:28:27.802Z,25.30
2018-09-05T21:30:56.313Z,25.33
2018-09-05T21:33:25.391Z,26.07
2018-09-05T21:35:53.876Z,26.13
2018-09-05T21:38:22.391Z,28.83
2018-09-05T21:40:50.917Z,28.20
2018-09-05T21:43:19.430Z,32.27
2018-09-05T21:45:47.957Z,30.17
2018-09-05T21:48:16.491Z,26.57
2018-09-05T21:50:44.972Z,26.97
2018-09-05T21:53:13.479Z,26.37
2018-09-05T21:55:41.967Z,24.20
2018-09-05T21:58:10.599Z,25.37
2018-09-05T22:00:39.122Z,26.70
2018-09-05T22:03:07.665Z,25.97
2018-09-05T22:05:36.146Z,25.77
2018-09-05T22:08:04.678Z,24.10
2018-09-05T22:10:33.194Z,25.80
2018-09-05T22:13:01.953Z,23.43
2018-09-05T22:15:35.757Z,24.53
2018-09-05T22:18:04.282Z,24.63
2018-09-05T22:20:32.760Z,26.27
2018-09-05T22:23:01.264Z,26.13
2018-09-05T22:25:30.031Z,25.47
2018-09-05T22:27:58.951Z,25.53
2018-09-05T22:30:27.668Z,27.40
2018-09-05T22:32:56.208Z,26.97
2018-09-05T22:35:24.710Z,25.27
2018-09-05T22:37:53.224Z,24.60
2018-09-05T22:40:21.744Z,25.27
2018-09-05T22:43:01.539Z,27.60
2018-09-05T22:45:41.273Z,26.60
2018-09-05T22:49:27.876Z,26.13
2018-09-05T22:52:16.003Z,27.50
2018-09-05T22:55:01.742Z,26.50
2018-09-05T22:58:42.951Z,26.83
2018-09-05T23:01:26.722Z,28.50
2018-09-05T23:04:38.535Z,26.30
2018-09-05T23:07:17.327Z,29.33
2018-09-05T23:09:57.054Z,26.37
2018-09-05T23:12:36.813Z,27.67
2018-09-05T23:15:16.602Z,26.27
2018-09-05T23:20:04.047Z,25.50
2018-09-05T23:22:43.794Z,24.47
2018-09-05T23:25:12.465Z,24.77
2018-09-05T23:27:41.007Z,24.07
2018-09-05T23:30:09.534Z,24.20
2018-09-05T23:32:38.020Z,26.30
2018-09-05T23:35:06.553Z,25.13
2018-09-05T23:37:35.068Z,28.20
2018-09-05T23:40:03.609Z,28.60
2018-09-05T23:42:32.108Z,27.97
2018-09-05T23:45:00.817Z,28.50
2018-09-05T23:47:29.316Z,28.60
2018-09-05T23:49:57.839Z,28.43
2018-09-05T23:52:26.363Z,28.57
2018-09-05T23:54:54.873Z,29.20
2018-09-05T23:57:23.359Z,29.37
2018-09-05T23:59:51.850Z,29.67
